Time;durP1;ratioP1;P1;durP2;ratioP2;P2;SDS_P1;SDS_P2;PMS_P1;PMS_P2;Temp;Humidity;BMP_temperature;BMP_pressure;BME280_temperature;BME280_humidity;BME280_pressure;Samples;Min_cycle;Max_cycle;Signal;HPM_P1;HPM_P2
2022/08/16 00:00:10;;;;;;;8.88;6.40;;;;;;;;;;4963198;28;20039;-64
2022/08/16 00:02:39;;;;;;;6.95;6.43;;;;;;;;;;4963184;28;20562;-64
2022/08/16 00:05:05;;;;;;;7.22;6.53;;;;;;;;;;4961305;28;20042;-63
2022/08/16 00:07:31;;;;;;;8.70;6.82;;;;;;;;;;4935152;28;20037;-62
2022/08/16 00:09:57;;;;;;;6.47;5.90;;;;;;;;;;4961226;28;20385;-63
2022/08/16 00:12:22;;;;;;;6.63;6.13;;;;;;;;;;4957349;28;20037;-63
2022/08/16 00:14:48;;;;;;;6.72;6.10;;;;;;;;;;4961205;28;20026;-63
2022/08/16 00:17:13;;;;;;;7.05;6.55;;;;;;;;;;4959062;28;20485;-63
2022/08/16 00:19:38;;;;;;;6.95;6.30;;;;;;;;;;4943372;28;20031;-64
2022/08/16 00:22:03;;;;;;;7.40;6.88;;;;;;;;;;4963259;28;20073;-63
2022/08/16 00:24:29;;;;;;;6.65;6.15;;;;;;;;;;4963920;28;20029;-62
2022/08/16 00:26:55;;;;;;;6.45;6.05;;;;;;;;;;4947331;28;20607;-62
2022/08/16 00:29:20;;;;;;;6.57;5.97;;;;;;;;;;4962745;28;20053;-63
2022/08/16 00:31:48;;;;;;;7.07;6.57;;;;;;;;;;4962514;28;20117;-65
2022/08/16 00:34:14;;;;;;;6.90;6.30;;;;;;;;;;4964684;28;20050;-64
2022/08/16 00:36:39;;;;;;;6.15;5.65;;;;;;;;;;4963168;28;20031;-63
2022/08/16 00:39:05;;;;;;;6.25;5.85;;;;;;;;;;4956969;28;20568;-62
2022/08/16 00:41:30;;;;;;;5.95;5.55;;;;;;;;;;4959128;28;20610;-62
2022/08/16 00:43:58;;;;;;;6.13;5.63;;;;;;;;;;4964225;28;20508;-63
2022/08/16 00:46:32;;;;;;;5.95;5.35;;;;;;;;;;4960500;28;20031;-62
2022/08/16 00:48:57;;;;;;;6.00;5.47;;;;;;;;;;4934215;28;20397;-64
2022/08/16 00:51:24;;;;;;;5.82;5.18;;;;;;;;;;4962837;28;20026;-65
2022/08/16 00:53:49;;;;;;;5.82;5.28;;;;;;;;;;4962949;28;20062;-64
2022/08/16 00:56:16;;;;;;;6.55;6.10;;;;;;;;;;4964325;28;20423;-65
2022/08/16 00:58:43;;;;;;;5.78;5.22;;;;;;;;;;4963372;28;20069;-65
2022/08/16 01:01:09;;;;;;;5.80;5.30;;;;;;;;;;4962128;28;20543;-64
2022/08/16 01:03:35;;;;;;;6.93;6.35;;;;;;;;;;4962720;28;20023;-64
2022/08/16 01:06:01;;;;;;;6.50;6.00;;;;;;;;;;4963851;28;20110;-64
2022/08/16 01:08:26;;;;;;;7.70;6.97;;;;;;;;;;4962843;28;20131;-64
2022/08/16 01:10:52;;;;;;;6.65;6.15;;;;;;;;;;4963099;28;20531;-65
2022/08/16 01:13:19;;;;;;;6.18;5.60;;;;;;;;;;4961335;28;20571;-64
2022/08/16 01:15:52;;;;;;;6.43;5.82;;;;;;;;;;4956597;28;20521;-64
2022/08/16 01:18:18;;;;;;;6.32;5.82;;;;;;;;;;4961452;28;20426;-65
2022/08/16 01:20:49;;;;;;;6.47;4.72;;;;;;;;;;4958959;28;20031;-64
2022/08/16 01:23:28;;;;;;;6.55;5.18;;;;;;;;;;4957433;28;20414;-64
2022/08/16 01:25:54;;;;;;;6.38;4.60;;;;;;;;;;4959448;28;20026;-62
2022/08/16 01:28:20;;;;;;;10.93;5.53;;;;;;;;;;4956634;28;20039;-64
2022/08/16 01:30:47;;;;;;;5.43;5.03;;;;;;;;;;4961349;28;20031;-63
2022/08/16 01:33:13;;;;;;;8.48;4.53;;;;;;;;;;4957837;28;20105;-62
2022/08/16 01:35:41;;;;;;;5.28;4.93;;;;;;;;;;4956188;28;20026;-63
2022/08/16 01:38:14;;;;;;;5.35;4.95;;;;;;;;;;4962921;28;20108;-63
2022/08/16 01:40:39;;;;;;;5.68;5.15;;;;;;;;;;4962889;28;20084;-62
2022/08/16 01:43:04;;;;;;;5.55;4.72;;;;;;;;;;4942912;28;20032;-64
2022/08/16 01:45:29;;;;;;;5.00;4.60;;;;;;;;;;4956385;28;20457;-63
2022/08/16 01:47:55;;;;;;;4.75;4.35;;;;;;;;;;4958231;28;20046;-63
2022/08/16 01:50:20;;;;;;;5.10;4.75;;;;;;;;;;4956817;28;20082;-63
2022/08/16 01:52:45;;;;;;;5.18;4.45;;;;;;;;;;4961712;28;20771;-64
2022/08/16 01:55:11;;;;;;;5.00;4.60;;;;;;;;;;4956359;28;20516;-63
2022/08/16 01:57:36;;;;;;;5.30;4.90;;;;;;;;;;4957703;28;20043;-63
2022/08/16 02:00:04;;;;;;;4.68;4.38;;;;;;;;;;4960016;28;20585;-63
2022/08/16 02:02:29;;;;;;;5.90;5.32;;;;;;;;;;4960902;28;20155;-64
2022/08/16 02:04:55;;;;;;;4.55;4.00;;;;;;;;;;4963935;28;20079;-63
2022/08/16 02:07:21;;;;;;;5.40;5.00;;;;;;;;;;4965884;28;20494;-64
2022/08/16 02:09:47;;;;;;;4.63;4.30;;;;;;;;;;4963379;28;20251;-64
2022/08/16 02:12:13;;;;;;;4.35;3.95;;;;;;;;;;4960268;28;20030;-66
2022/08/16 02:14:39;;;;;;;4.38;4.07;;;;;;;;;;4960650;28;20473;-63
2022/08/16 02:17:05;;;;;;;4.53;4.22;;;;;;;;;;4960144;28;20042;-63
2022/08/16 02:19:32;;;;;;;4.95;4.40;;;;;;;;;;4961930;28;20362;-63
2022/08/16 02:21:58;;;;;;;4.35;4.05;;;;;;;;;;4966672;28;20030;-65
2022/08/16 02:24:24;;;;;;;4.57;4.18;;;;;;;;;;4965446;28;20050;-65
2022/08/16 02:26:49;;;;;;;3.80;3.50;;;;;;;;;;4961875;28;20117;-65
2022/08/16 02:29:17;;;;;;;4.93;4.55;;;;;;;;;;4958653;28;20480;-66
2022/08/16 02:31:42;;;;;;;4.57;3.67;;;;;;;;;;4962198;28;20624;-65
2022/08/16 02:34:07;;;;;;;4.85;4.45;;;;;;;;;;4962792;28;20109;-69
2022/08/16 02:36:33;;;;;;;4.47;3.90;;;;;;;;;;4959222;28;20039;-65
2022/08/16 02:38:58;;;;;;;4.57;4.28;;;;;;;;;;4960905;28;20026;-66
2022/08/16 02:41:24;;;;;;;4.80;4.10;;;;;;;;;;4947379;28;20150;-65
2022/08/16 02:43:49;;;;;;;4.70;4.38;;;;;;;;;;4964314;28;20084;-65
2022/08/16 02:46:14;;;;;;;4.28;3.97;;;;;;;;;;4965759;28;20034;-66
2022/08/16 02:48:39;;;;;;;4.40;4.00;;;;;;;;;;4950856;28;20065;-64
2022/08/16 02:51:06;;;;;;;4.10;3.70;;;;;;;;;;4964820;28;20045;-66
2022/08/16 02:53:35;;;;;;;4.20;3.90;;;;;;;;;;4965131;28;20073;-66
2022/08/16 02:56:00;;;;;;;5.25;3.38;;;;;;;;;;4965773;28;20054;-64
2022/08/16 02:58:26;;;;;;;3.47;3.17;;;;;;;;;;4964194;28;20070;-64
2022/08/16 03:00:52;;;;;;;4.25;3.92;;;;;;;;;;4957888;28;20149;-64
2022/08/16 03:03:17;;;;;;;3.88;3.67;;;;;;;;;;4960131;28;20145;-64
2022/08/16 03:05:43;;;;;;;3.65;3.40;;;;;;;;;;4963425;28;20545;-64
2022/08/16 03:08:08;;;;;;;4.45;3.75;;;;;;;;;;4964800;28;20064;-64
2022/08/16 03:10:34;;;;;;;3.90;3.60;;;;;;;;;;4958694;28;20137;-66
2022/08/16 03:12:59;;;;;;;3.33;3.03;;;;;;;;;;4958692;28;20145;-65
2022/08/16 03:15:25;;;;;;;3.97;3.70;;;;;;;;;;4960134;28;20045;-60
2022/08/16 03:17:50;;;;;;;4.05;3.53;;;;;;;;;;4959027;28;20384;-62
2022/08/16 03:20:16;;;;;;;4.63;3.50;;;;;;;;;;4963228;28;20374;-61
2022/08/16 03:22:41;;;;;;;4.43;3.63;;;;;;;;;;4965821;28;20213;-62
2022/08/16 03:25:08;;;;;;;3.83;3.47;;;;;;;;;;4963611;28;20093;-68
2022/08/16 03:27:34;;;;;;;4.95;3.33;;;;;;;;;;4964986;28;20130;-64
2022/08/16 03:30:04;;;;;;;4.25;3.92;;;;;;;;;;4964219;28;20362;-65
2022/08/16 03:32:29;;;;;;;4.45;3.50;;;;;;;;;;4965119;28;20065;-64
2022/08/16 03:34:55;;;;;;;3.45;3.25;;;;;;;;;;4964272;28;20515;-63
2022/08/16 03:37:21;;;;;;;3.60;3.22;;;;;;;;;;4964120;28;20223;-64
2022/08/16 03:39:46;;;;;;;3.17;2.88;;;;;;;;;;4948002;28;20544;-64
2022/08/16 03:42:11;;;;;;;3.15;2.90;;;;;;;;;;4963036;28;20144;-64
2022/08/16 03:44:36;;;;;;;2.85;2.65;;;;;;;;;;4962150;28;20023;-64
2022/08/16 03:47:02;;;;;;;3.25;3.05;;;;;;;;;;4964782;28;20141;-64
2022/08/16 03:49:27;;;;;;;5.85;3.20;;;;;;;;;;4964455;28;20118;-63
2022/08/16 03:51:53;;;;;;;2.95;2.72;;;;;;;;;;4963780;28;20029;-63
2022/08/16 03:54:18;;;;;;;4.60;3.10;;;;;;;;;;4963265;28;20034;-64
2022/08/16 03:56:43;;;;;;;3.42;2.42;;;;;;;;;;4963273;28;20035;-63
2022/08/16 03:59:09;;;;;;;3.20;2.78;;;;;;;;;;4964109;28;20041;-65
2022/08/16 04:01:34;;;;;;;3.13;2.83;;;;;;;;;;4964354;28;20038;-66
2022/08/16 04:04:00;;;;;;;3.58;3.03;;;;;;;;;;4963237;28;20027;-64
2022/08/16 04:06:25;;;;;;;3.40;3.03;;;;;;;;;;4963979;28;20038;-63
2022/08/16 04:08:50;;;;;;;3.17;2.88;;;;;;;;;;4964523;28;20588;-64
2022/08/16 04:11:15;;;;;;;3.10;2.90;;;;;;;;;;4946707;28;20166;-65
2022/08/16 04:13:41;;;;;;;3.58;3.05;;;;;;;;;;4964977;28;20031;-64
2022/08/16 04:16:07;;;;;;;2.80;2.60;;;;;;;;;;4964586;28;20477;-64
2022/08/16 04:18:35;;;;;;;2.60;2.40;;;;;;;;;;4965247;28;20126;-64
2022/08/16 04:21:00;;;;;;;4.18;3.05;;;;;;;;;;4964084;28;20536;-64
2022/08/16 04:23:26;;;;;;;3.47;3.28;;;;;;;;;;4964162;28;20114;-64
2022/08/16 04:25:53;;;;;;;3.28;2.97;;;;;;;;;;4947815;28;20026;-64
2022/08/16 04:28:19;;;;;;;3.20;3.00;;;;;;;;;;4964029;28;20035;-64
2022/08/16 04:30:44;;;;;;;2.80;2.60;;;;;;;;;;4964224;28;20049;-64
2022/08/16 04:33:09;;;;;;;2.83;2.63;;;;;;;;;;4963587;28;20057;-63
2022/08/16 04:35:35;;;;;;;4.65;2.95;;;;;;;;;;4964536;28;20023;-64
2022/08/16 04:38:00;;;;;;;3.28;3.08;;;;;;;;;;4939920;28;20148;-64
2022/08/16 04:40:26;;;;;;;3.17;3.00;;;;;;;;;;4963805;28;20058;-64
2022/08/16 04:42:51;;;;;;;3.25;2.70;;;;;;;;;;4964553;28;20031;-63
2022/08/16 04:45:17;;;;;;;2.70;2.53;;;;;;;;;;4962311;28;20536;-64
2022/08/16 04:47:42;;;;;;;3.20;2.90;;;;;;;;;;4962499;28;20074;-64
2022/08/16 04:50:10;;;;;;;3.67;3.38;;;;;;;;;;4962096;28;20069;-64
2022/08/16 04:52:39;;;;;;;3.63;2.90;;;;;;;;;;4957643;28;20036;-64
2022/08/16 04:55:08;;;;;;;3.00;2.70;;;;;;;;;;4958840;28;20344;-64
2022/08/16 04:57:34;;;;;;;3.53;3.25;;;;;;;;;;4962616;28;20515;-66
2022/08/16 04:59:59;;;;;;;3.00;2.75;;;;;;;;;;4959366;28;20034;-64
2022/08/16 05:02:24;;;;;;;2.88;2.58;;;;;;;;;;4958236;28;20608;-64
2022/08/16 05:04:50;;;;;;;3.05;2.85;;;;;;;;;;4958012;28;20683;-64
2022/08/16 05:07:15;;;;;;;3.17;3.00;;;;;;;;;;4955810;28;20405;-66
2022/08/16 05:09:40;;;;;;;3.47;2.88;;;;;;;;;;4962323;28;20054;-65
2022/08/16 05:12:05;;;;;;;3.33;3.00;;;;;;;;;;4963000;28;20584;-68
2022/08/16 05:14:31;;;;;;;2.80;2.53;;;;;;;;;;4963553;28;20038;-65
2022/08/16 05:16:56;;;;;;;3.33;2.90;;;;;;;;;;4957594;28;20038;-66
2022/08/16 05:19:21;;;;;;;3.10;2.97;;;;;;;;;;4957263;28;20085;-65
2022/08/16 05:21:46;;;;;;;3.83;3.50;;;;;;;;;;4943072;28;20039;-65
2022/08/16 05:24:15;;;;;;;2.90;2.70;;;;;;;;;;4957200;28;20035;-65
2022/08/16 05:26:40;;;;;;;3.13;2.90;;;;;;;;;;4959283;28;20067;-66
2022/08/16 05:29:06;;;;;;;3.42;2.67;;;;;;;;;;4956669;28;20643;-65
2022/08/16 05:31:32;;;;;;;2.92;2.72;;;;;;;;;;4959576;28;20058;-65
2022/08/16 05:33:58;;;;;;;2.75;2.55;;;;;;;;;;4962840;28;20550;-66
2022/08/16 05:36:23;;;;;;;2.80;2.60;;;;;;;;;;4965354;28;20030;-65
2022/08/16 05:38:49;;;;;;;2.97;2.78;;;;;;;;;;4958534;28;20031;-65
2022/08/16 05:41:14;;;;;;;2.90;2.70;;;;;;;;;;4959608;28;20034;-64
2022/08/16 05:43:40;;;;;;;4.65;2.95;;;;;;;;;;4961910;28;20031;-65
2022/08/16 05:46:05;;;;;;;2.50;2.22;;;;;;;;;;4959858;28;20472;-65
2022/08/16 05:48:33;;;;;;;2.88;2.67;;;;;;;;;;4963313;28;20042;-65
2022/08/16 05:50:58;;;;;;;2.53;2.40;;;;;;;;;;4964434;28;20473;-65
2022/08/16 05:53:24;;;;;;;2.72;2.53;;;;;;;;;;4959061;28;20396;-65
2022/08/16 05:55:49;;;;;;;2.90;2.70;;;;;;;;;;4945596;28;20037;-65
2022/08/16 05:58:14;;;;;;;2.85;2.65;;;;;;;;;;4961450;28;20039;-64
2022/08/16 06:00:40;;;;;;;2.97;2.70;;;;;;;;;;4959839;28;20038;-65
2022/08/16 06:03:05;;;;;;;2.65;2.40;;;;;;;;;;4960747;28;20573;-65
2022/08/16 06:05:33;;;;;;;2.60;2.40;;;;;;;;;;4959288;28;20035;-65
2022/08/16 06:07:59;;;;;;;3.47;2.55;;;;;;;;;;4961695;28;20034;-65
2022/08/16 06:10:24;;;;;;;4.07;3.15;;;;;;;;;;4959100;28;20045;-65
2022/08/16 06:12:49;;;;;;;3.45;2.85;;;;;;;;;;4961305;28;20027;-66
2022/08/16 06:15:16;;;;;;;4.47;2.80;;;;;;;;;;4959683;28;20027;-66
2022/08/16 06:17:45;;;;;;;3.85;3.47;;;;;;;;;;4960163;28;20030;-66
2022/08/16 06:20:15;;;;;;;2.75;2.58;;;;;;;;;;4959514;28;20030;-66
2022/08/16 06:22:41;;;;;;;2.88;2.67;;;;;;;;;;4959800;28;20078;-66
2022/08/16 06:25:07;;;;;;;3.80;2.95;;;;;;;;;;4962471;28;20109;-65
2022/08/16 06:27:32;;;;;;;3.28;2.83;;;;;;;;;;4934798;28;20915;-65
2022/08/16 06:29:57;;;;;;;3.67;2.80;;;;;;;;;;4960542;28;20114;-66
2022/08/16 06:32:23;;;;;;;3.30;2.70;;;;;;;;;;4918020;28;1219459;-65
2022/08/16 06:34:48;;;;;;;3.08;2.80;;;;;;;;;;4960815;28;20136;-66
2022/08/16 06:37:13;;;;;;;4.90;2.85;;;;;;;;;;4960699;28;20153;-66
2022/08/16 06:39:39;;;;;;;3.03;2.83;;;;;;;;;;4959429;28;20030;-67
2022/08/16 06:42:04;;;;;;;3.85;3.50;;;;;;;;;;4962680;28;20461;-66
2022/08/16 06:44:29;;;;;;;4.20;3.90;;;;;;;;;;4960949;28;20437;-66
2022/08/16 06:46:55;;;;;;;3.22;2.53;;;;;;;;;;4961996;28;20037;-66
2022/08/16 06:49:20;;;;;;;7.13;3.60;;;;;;;;;;4964898;28;20034;-66
2022/08/16 06:51:45;;;;;;;3.80;3.35;;;;;;;;;;4960949;28;20031;-65
2022/08/16 06:54:11;;;;;;;2.80;2.67;;;;;;;;;;4958283;28;20057;-66
2022/08/16 06:56:36;;;;;;;3.47;3.08;;;;;;;;;;4961998;28;20042;-66
2022/08/16 06:59:02;;;;;;;4.00;2.90;;;;;;;;;;4958149;28;20417;-66
2022/08/16 07:01:27;;;;;;;5.53;3.08;;;;;;;;;;4963139;28;20543;-65
2022/08/16 07:03:53;;;;;;;3.53;3.25;;;;;;;;;;4966128;28;20537;-65
2022/08/16 07:06:19;;;;;;;3.10;2.90;;;;;;;;;;4962340;28;20038;-66
2022/08/16 07:08:45;;;;;;;3.60;3.30;;;;;;;;;;4957944;28;20093;-68
2022/08/16 07:11:11;;;;;;;3.22;2.92;;;;;;;;;;4961987;28;20031;-66
2022/08/16 07:13:36;;;;;;;3.10;2.90;;;;;;;;;;4958373;28;20311;-66
2022/08/16 07:16:03;;;;;;;3.38;3.17;;;;;;;;;;4961876;28;20054;-66
2022/08/16 07:18:28;;;;;;;3.92;3.15;;;;;;;;;;4964364;28;20658;-67
2022/08/16 07:20:53;;;;;;;3.45;3.13;;;;;;;;;;4961960;28;20057;-67
2022/08/16 07:23:19;;;;;;;3.70;3.38;;;;;;;;;;4958386;28;20030;-67
2022/08/16 07:25:45;;;;;;;3.83;3.13;;;;;;;;;;4962193;28;20065;-66
2022/08/16 07:28:14;;;;;;;3.28;2.97;;;;;;;;;;4958439;28;20611;-66
2022/08/16 07:30:40;;;;;;;3.08;2.78;;;;;;;;;;4960249;28;20054;-66
2022/08/16 07:33:06;;;;;;;3.30;3.00;;;;;;;;;;4961194;28;20102;-67
2022/08/16 07:35:31;;;;;;;3.88;3.25;;;;;;;;;;4961616;28;20031;-66
2022/08/16 07:37:57;;;;;;;4.63;3.83;;;;;;;;;;4967453;28;20030;-67
2022/08/16 07:40:24;;;;;;;5.28;3.35;;;;;;;;;;4967320;28;20082;-67
2022/08/16 07:42:49;;;;;;;4.72;3.35;;;;;;;;;;4967584;28;20029;-66
2022/08/16 07:45:14;;;;;;;3.58;3.28;;;;;;;;;;4972123;28;20027;-67
2022/08/16 07:47:40;;;;;;;3.20;3.00;;;;;;;;;;4969886;28;20035;-67
2022/08/16 07:50:06;;;;;;;3.53;3.30;;;;;;;;;;4937253;28;20054;-68
2022/08/16 07:52:33;;;;;;;3.60;3.38;;;;;;;;;;4960891;28;20037;-67
2022/08/16 07:54:58;;;;;;;3.20;3.00;;;;;;;;;;4963487;28;20027;-66
2022/08/16 07:57:23;;;;;;;3.42;3.22;;;;;;;;;;4962920;28;20552;-67
2022/08/16 07:59:48;;;;;;;3.95;3.75;;;;;;;;;;4966449;28;20449;-68
2022/08/16 08:02:14;;;;;;;3.67;3.47;;;;;;;;;;4969361;28;20382;-66
2022/08/16 08:04:40;;;;;;;4.22;3.65;;;;;;;;;;4967825;28;20081;-65
2022/08/16 08:07:05;;;;;;;8.20;3.72;;;;;;;;;;4968144;28;20178;-65
2022/08/16 08:09:31;;;;;;;3.50;2.90;;;;;;;;;;4966860;28;20527;-65
2022/08/16 08:11:56;;;;;;;3.90;3.65;;;;;;;;;;4968139;28;20027;-65
2022/08/16 08:14:21;;;;;;;3.40;3.10;;;;;;;;;;4933209;28;20034;-65
2022/08/16 08:16:46;;;;;;;3.10;2.90;;;;;;;;;;4967274;28;20517;-65
2022/08/16 08:19:12;;;;;;;3.95;2.97;;;;;;;;;;4966403;28;20034;-67
2022/08/16 08:21:39;;;;;;;3.08;2.95;;;;;;;;;;4967110;28;20084;-67
2022/08/16 08:24:05;;;;;;;3.97;2.97;;;;;;;;;;4965853;28;20451;-66
2022/08/16 08:26:30;;;;;;;3.50;3.20;;;;;;;;;;4962458;28;20030;-66
2022/08/16 08:28:55;;;;;;;3.58;3.38;;;;;;;;;;4959844;28;20130;-65
2022/08/16 08:31:20;;;;;;;3.90;3.40;;;;;;;;;;4966659;28;20093;-67
2022/08/16 08:33:46;;;;;;;3.47;3.28;;;;;;;;;;4963120;28;20476;-66
2022/08/16 08:36:14;;;;;;;7.32;3.47;;;;;;;;;;4960009;28;20070;-66
2022/08/16 08:38:40;;;;;;;3.78;3.47;;;;;;;;;;4963440;28;20062;-66
2022/08/16 08:41:07;;;;;;;3.22;3.03;;;;;;;;;;4966426;28;20054;-66
2022/08/16 08:43:33;;;;;;;3.33;3.13;;;;;;;;;;4965963;28;20031;-66
2022/08/16 08:45:58;;;;;;;3.65;3.45;;;;;;;;;;4966480;28;20027;-67
2022/08/16 08:48:24;;;;;;;3.50;3.30;;;;;;;;;;4965225;28;20382;-67
2022/08/16 08:50:49;;;;;;;3.30;3.00;;;;;;;;;;4965472;28;20027;-66
2022/08/16 08:53:15;;;;;;;3.30;3.10;;;;;;;;;;4965574;28;20037;-68
2022/08/16 08:55:41;;;;;;;3.47;3.17;;;;;;;;;;4966111;28;20030;-66
2022/08/16 08:58:06;;;;;;;3.35;3.15;;;;;;;;;;4965287;28;20473;-66
2022/08/16 09:00:33;;;;;;;3.33;3.17;;;;;;;;;;4966537;28;20035;-65
2022/08/16 09:02:59;;;;;;;3.60;3.30;;;;;;;;;;4965841;28;20377;-66
2022/08/16 09:05:26;;;;;;;3.88;3.60;;;;;;;;;;4965858;28;20033;-65
2022/08/16 09:07:51;;;;;;;3.33;3.05;;;;;;;;;;4963368;28;20038;-65
2022/08/16 09:10:17;;;;;;;3.67;3.38;;;;;;;;;;4959861;28;20038;-66
2022/08/16 09:12:42;;;;;;;3.38;3.10;;;;;;;;;;4962060;28;20390;-66
2022/08/16 09:15:08;;;;;;;5.82;3.60;;;;;;;;;;4942980;28;20038;-65
2022/08/16 09:17:33;;;;;;;4.75;3.33;;;;;;;;;;4962668;28;20035;-66
2022/08/16 09:19:59;;;;;;;4.45;4.15;;;;;;;;;;4965740;28;20034;-66
2022/08/16 09:22:25;;;;;;;3.40;3.20;;;;;;;;;;4965251;28;20544;-66
2022/08/16 09:24:50;;;;;;;3.88;3.58;;;;;;;;;;4966101;28;20031;-66
2022/08/16 09:27:16;;;;;;;3.75;3.45;;;;;;;;;;4966380;28;20440;-66
2022/08/16 09:29:41;;;;;;;4.13;3.92;;;;;;;;;;4966525;28;20449;-66
2022/08/16 09:32:06;;;;;;;3.55;3.35;;;;;;;;;;4962848;28;20105;-66
2022/08/16 09:34:32;;;;;;;3.75;3.55;;;;;;;;;;4958626;28;20027;-66
2022/08/16 09:36:57;;;;;;;3.70;3.42;;;;;;;;;;4956571;28;20473;-67
2022/08/16 09:39:23;;;;;;;4.30;3.95;;;;;;;;;;4959541;28;20878;-67
2022/08/16 09:41:51;;;;;;;3.25;3.05;;;;;;;;;;4956663;28;20145;-67
2022/08/16 09:44:19;;;;;;;3.63;3.42;;;;;;;;;;4960403;28;20027;-66
2022/08/16 09:46:44;;;;;;;3.63;3.40;;;;;;;;;;4963476;28;20335;-66
2022/08/16 09:49:10;;;;;;;5.07;3.72;;;;;;;;;;4961170;28;20039;-66
2022/08/16 09:51:36;;;;;;;3.35;3.15;;;;;;;;;;4962024;28;20532;-66
2022/08/16 09:54:01;;;;;;;4.45;4.15;;;;;;;;;;4946324;28;20027;-66
2022/08/16 09:56:29;;;;;;;4.18;3.97;;;;;;;;;;4956514;28;20038;-66
2022/08/16 09:58:55;;;;;;;4.15;3.85;;;;;;;;;;4958390;28;20039;-66
2022/08/16 10:01:21;;;;;;;3.47;3.30;;;;;;;;;;4959211;28;20035;-67
2022/08/16 10:03:46;;;;;;;4.93;4.63;;;;;;;;;;4955615;28;20030;-66
2022/08/16 10:06:11;;;;;;;4.05;3.83;;;;;;;;;;4961695;28;20329;-66
2022/08/16 10:08:37;;;;;;;6.05;4.07;;;;;;;;;;4962023;28;20794;-66
2022/08/16 10:13:47;;;;;;;4.93;4.60;;;;;;;;;;4939850;28;20039;-67
2022/08/16 10:16:12;;;;;;;4.40;4.10;;;;;;;;;;4956374;28;20089;-64
2022/08/16 10:18:39;;;;;;;4.15;3.85;;;;;;;;;;4955860;28;20586;-63
2022/08/16 10:21:05;;;;;;;3.75;3.45;;;;;;;;;;4964381;28;20037;-61
2022/08/16 10:23:30;;;;;;;3.60;3.40;;;;;;;;;;4965168;28;20022;-63
2022/08/16 10:25:56;;;;;;;4.75;4.35;;;;;;;;;;4964952;28;20031;-62
2022/08/16 10:28:21;;;;;;;5.20;4.28;;;;;;;;;;4963852;28;20536;-65
2022/08/16 10:30:46;;;;;;;3.85;3.55;;;;;;;;;;4960347;28;20580;-60
2022/08/16 10:33:12;;;;;;;4.22;3.85;;;;;;;;;;4959430;28;20389;-60
2022/08/16 10:35:38;;;;;;;3.97;3.67;;;;;;;;;;4962270;28;20033;-60
2022/08/16 10:38:03;;;;;;;5.90;3.90;;;;;;;;;;4959728;28;20094;-61
2022/08/16 10:40:29;;;;;;;4.15;3.95;;;;;;;;;;4962481;28;20027;-60
2022/08/16 10:42:57;;;;;;;4.30;4.03;;;;;;;;;;4962460;28;20699;-60
2022/08/16 10:45:24;;;;;;;4.88;4.47;;;;;;;;;;4966015;28;20023;-60
2022/08/16 10:47:50;;;;;;;3.95;3.58;;;;;;;;;;4964374;28;20035;-61
2022/08/16 10:50:15;;;;;;;4.30;4.10;;;;;;;;;;4965147;28;20025;-60
2022/08/16 10:52:40;;;;;;;4.80;4.50;;;;;;;;;;4949191;28;20035;-61
2022/08/16 10:55:11;;;;;;;3.63;3.35;;;;;;;;;;4964133;28;20049;-60
2022/08/16 10:57:36;;;;;;;4.13;3.83;;;;;;;;;;4964408;28;20089;-60
2022/08/16 11:00:06;;;;;;;4.30;4.10;;;;;;;;;;4964538;28;20031;-63
2022/08/16 11:02:31;;;;;;;3.90;3.60;;;;;;;;;;4964674;28;20026;-63
2022/08/16 11:04:57;;;;;;;4.25;3.97;;;;;;;;;;4958765;28;20027;-63
2022/08/16 11:07:22;;;;;;;3.78;3.58;;;;;;;;;;4958653;28;20023;-64
2022/08/16 11:09:47;;;;;;;3.60;3.40;;;;;;;;;;4964219;28;20081;-64
2022/08/16 11:12:12;;;;;;;3.63;3.42;;;;;;;;;;4965532;28;20015;-64
2022/08/16 11:14:38;;;;;;;4.18;3.92;;;;;;;;;;4964796;28;20447;-63
2022/08/16 11:17:04;;;;;;;4.07;3.60;;;;;;;;;;4964705;28;20022;-64
2022/08/16 11:19:32;;;;;;;3.90;3.70;;;;;;;;;;4962586;28;20035;-63
2022/08/16 11:21:59;;;;;;;4.47;4.18;;;;;;;;;;4960638;28;20027;-64
2022/08/16 11:24:25;;;;;;;3.75;3.47;;;;;;;;;;4957784;28;20022;-63
2022/08/16 11:26:51;;;;;;;3.50;3.40;;;;;;;;;;4962913;28;20373;-63
2022/08/16 11:29:16;;;;;;;4.40;4.00;;;;;;;;;;4964237;28;20043;-64
2022/08/16 11:31:42;;;;;;;3.65;3.35;;;;;;;;;;4959527;28;20416;-64
2022/08/16 11:34:07;;;;;;;3.92;3.65;;;;;;;;;;4936728;28;20059;-63
2022/08/16 11:36:32;;;;;;;6.13;3.90;;;;;;;;;;4961014;28;20030;-64
2022/08/16 11:38:58;;;;;;;4.18;3.90;;;;;;;;;;4958291;28;20113;-64
2022/08/16 11:41:23;;;;;;;4.65;4.30;;;;;;;;;;4962785;28;20150;-64
2022/08/16 11:43:49;;;;;;;3.80;3.60;;;;;;;;;;4964820;28;20528;-64
2022/08/16 11:46:16;;;;;;;4.88;4.57;;;;;;;;;;4946878;28;20035;-64
2022/08/16 11:48:44;;;;;;;4.70;4.40;;;;;;;;;;4943531;28;20548;-64
2022/08/16 11:51:12;;;;;;;4.00;3.80;;;;;;;;;;4960435;28;20062;-63
2022/08/16 11:53:38;;;;;;;4.43;4.13;;;;;;;;;;4958596;28;20030;-65
2022/08/16 11:56:03;;;;;;;4.50;4.10;;;;;;;;;;4959521;28;20026;-65
2022/08/16 11:58:30;;;;;;;3.60;3.40;;;;;;;;;;4963682;28;20120;-64
2022/08/16 12:00:56;;;;;;;3.78;3.58;;;;;;;;;;4962910;28;20057;-64
2022/08/16 12:03:30;;;;;;;4.65;3.70;;;;;;;;;;4963863;28;20038;-65
2022/08/16 12:05:56;;;;;;;3.85;3.60;;;;;;;;;;4961267;28;20156;-64
2022/08/16 12:08:21;;;;;;;4.20;3.80;;;;;;;;;;4957217;28;20365;-65
2022/08/16 12:10:50;;;;;;;3.53;3.33;;;;;;;;;;4959272;28;20427;-64
2022/08/16 12:13:16;;;;;;;4.00;3.70;;;;;;;;;;4956512;28;20030;-65
2022/08/16 12:15:41;;;;;;;4.65;4.40;;;;;;;;;;4958411;28;20023;-66
2022/08/16 12:18:07;;;;;;;4.80;4.45;;;;;;;;;;4957695;28;20078;-64
2022/08/16 12:20:34;;;;;;;4.57;4.20;;;;;;;;;;4957425;28;20794;-64
2022/08/16 12:23:00;;;;;;;4.93;4.63;;;;;;;;;;4960243;28;20035;-65
2022/08/16 12:25:27;;;;;;;4.40;4.10;;;;;;;;;;4957096;28;20030;-65
2022/08/16 12:27:53;;;;;;;3.97;3.75;;;;;;;;;;4961735;28;20035;-65
2022/08/16 12:30:23;;;;;;;4.43;4.07;;;;;;;;;;4962034;28;20034;-65
2022/08/16 12:32:49;;;;;;;5.03;4.63;;;;;;;;;;4959854;28;20086;-65
2022/08/16 12:35:16;;;;;;;4.30;4.00;;;;;;;;;;4939913;28;20199;-64
2022/08/16 12:37:42;;;;;;;3.80;3.60;;;;;;;;;;4960690;28;20030;-63
2022/08/16 12:40:09;;;;;;;4.38;4.18;;;;;;;;;;4955548;28;20628;-64
2022/08/16 12:42:34;;;;;;;4.13;3.75;;;;;;;;;;4958534;28;20118;-66
2022/08/16 12:45:01;;;;;;;4.10;3.75;;;;;;;;;;4960755;28;20396;-65
2022/08/16 12:50:10;;;;;;;3.90;3.70;;;;;;;;;;4963085;28;20441;-65
2022/08/16 12:52:35;;;;;;;4.35;4.15;;;;;;;;;;4964886;28;20035;-65
2022/08/16 12:55:01;;;;;;;4.25;3.95;;;;;;;;;;4958602;28;20469;-64
2022/08/16 12:57:27;;;;;;;4.47;4.10;;;;;;;;;;4958507;28;20031;-65
2022/08/16 12:59:52;;;;;;;3.80;3.65;;;;;;;;;;4964843;28;20488;-66
2022/08/16 13:02:18;;;;;;;4.40;4.10;;;;;;;;;;4961937;28;20117;-64
2022/08/16 13:04:44;;;;;;;4.30;4.00;;;;;;;;;;4957636;28;20092;-65
2022/08/16 13:07:09;;;;;;;4.63;4.43;;;;;;;;;;4958442;28;20514;-58
2022/08/16 13:09:46;;;;;;;4.90;4.50;;;;;;;;;;4956700;28;20022;-66
2022/08/16 13:12:18;;;;;;;5.00;4.70;;;;;;;;;;4956751;28;20552;-66
2022/08/16 13:14:44;;;;;;;4.80;4.50;;;;;;;;;;4957979;28;20924;-66
2022/08/16 13:17:13;;;;;;;4.20;3.97;;;;;;;;;;4924621;28;20043;-66
2022/08/16 13:19:39;;;;;;;4.70;3.80;;;;;;;;;;4959516;28;20043;-66
2022/08/16 13:22:05;;;;;;;5.05;4.60;;;;;;;;;;4954585;28;20033;-66
2022/08/16 13:24:30;;;;;;;4.30;4.10;;;;;;;;;;4961709;28;20030;-66
2022/08/16 13:26:55;;;;;;;4.95;4.65;;;;;;;;;;4962113;28;20465;-66
2022/08/16 13:29:21;;;;;;;5.32;4.53;;;;;;;;;;4960559;28;20124;-66
2022/08/16 13:31:46;;;;;;;4.57;4.28;;;;;;;;;;4943199;28;20168;-66
2022/08/16 13:34:11;;;;;;;4.38;4.07;;;;;;;;;;4959611;28;20027;-66
2022/08/16 13:36:37;;;;;;;5.18;4.88;;;;;;;;;;4963571;28;20030;-66
2022/08/16 13:39:08;;;;;;;4.00;3.80;;;;;;;;;;4962656;28;20093;-67
2022/08/16 13:41:34;;;;;;;4.60;4.30;;;;;;;;;;4962171;28;20053;-65
2022/08/16 13:44:00;;;;;;;4.68;4.40;;;;;;;;;;4962729;28;20038;-65
2022/08/16 13:46:26;;;;;;;5.30;4.80;;;;;;;;;;4962919;28;20027;-66
2022/08/16 13:48:51;;;;;;;5.97;4.50;;;;;;;;;;4962723;28;20042;-65
2022/08/16 13:51:18;;;;;;;4.30;4.10;;;;;;;;;;4955665;28;20041;-66
2022/08/16 13:53:48;;;;;;;5.20;4.70;;;;;;;;;;4958448;28;20031;-66
2022/08/16 13:56:13;;;;;;;4.90;4.60;;;;;;;;;;4959400;28;20481;-65
2022/08/16 13:58:38;;;;;;;5.35;5.05;;;;;;;;;;4959839;28;20037;-65
2022/08/16 14:01:04;;;;;;;4.93;3.85;;;;;;;;;;4966585;28;20031;-66
2022/08/16 14:03:29;;;;;;;5.13;4.82;;;;;;;;;;4966486;28;20043;-65
2022/08/16 14:05:54;;;;;;;4.45;4.25;;;;;;;;;;4964708;28;20062;-65
2022/08/16 14:08:19;;;;;;;4.50;4.10;;;;;;;;;;4966575;28;20046;-65
2022/08/16 14:10:45;;;;;;;4.45;4.25;;;;;;;;;;4960397;28;20023;-66
2022/08/16 14:13:11;;;;;;;4.95;4.65;;;;;;;;;;4961847;28;20436;-65
2022/08/16 14:15:36;;;;;;;5.18;4.88;;;;;;;;;;4965876;28;20045;-65
2022/08/16 14:18:01;;;;;;;5.15;4.75;;;;;;;;;;4965722;28;20027;-66
2022/08/16 14:20:27;;;;;;;4.85;4.55;;;;;;;;;;4965414;28;20816;-65
2022/08/16 14:22:52;;;;;;;4.70;4.40;;;;;;;;;;4967402;28;20228;-66
2022/08/16 14:25:19;;;;;;;4.53;4.13;;;;;;;;;;4964432;28;20027;-65
2022/08/16 14:27:45;;;;;;;5.18;4.88;;;;;;;;;;4966089;28;20605;-66
2022/08/16 14:30:12;;;;;;;4.82;4.50;;;;;;;;;;4959705;28;20031;-66
2022/08/16 14:32:39;;;;;;;6.35;4.78;;;;;;;;;;4961306;28;20051;-65
2022/08/16 14:35:06;;;;;;;5.50;5.13;;;;;;;;;;4962084;28;20122;-65
2022/08/16 14:37:31;;;;;;;5.10;4.63;;;;;;;;;;4959866;28;20078;-66
2022/08/16 14:39:57;;;;;;;5.50;4.95;;;;;;;;;;4966083;28;20030;-66